sensor_id;sensor_type;location;lat;lon;timestamp;pressure;altitude;pressure_sealevel;temperature;humidity
67345;BME280;54230;52.402;6.276;2023-03-17T00:00:00;100890.0;;;10.9;55.1
67345;BME280;54230;52.402;6.276;2023-03-17T00:05:00;100890.0;;;10.9;54.9
67345;BME280;54230;52.402;6.276;2023-03-17T00:10:00;100860.0;;;10.9;54.8
67345;BME280;54230;52.402;6.276;2023-03-17T00:15:00;100880.0;;;10.9;54.7
67345;BME280;54230;52.402;6.276;2023-03-17T00:20:00;100860.0;;;10.8;55.1
67345;BME280;54230;52.402;6.276;2023-03-17T00:25:00;100870.0;;;10.8;54.7
67345;BME280;54230;52.402;6.276;2023-03-17T00:30:00;100870.0;;;10.7;55.1
67345;BME280;54230;52.402;6.276;2023-03-17T00:35:00;100880.0;;;10.6;55.5
67345;BME280;54230;52.402;6.276;2023-03-17T00:40:00;100870.0;;;10.6;56.0
67345;BME280;54230;52.402;6.276;2023-03-17T00:45:00;100870.0;;;10.5;55.6
67345;BME280;54230;52.402;6.276;2023-03-17T00:50:00;100840.0;;;10.5;55.5
67345;BME280;54230;52.402;6.276;2023-03-17T00:55:00;100860.0;;;10.4;55.8
67345;BME280;54230;52.402;6.276;2023-03-17T01:00:00;100860.0;;;10.3;56.5
67345;BME280;54230;52.402;6.276;2023-03-17T01:05:00;100840.0;;;10.4;56.1
67345;BME280;54230;52.402;6.276;2023-03-17T01:10:00;100840.0;;;10.5;55.6
67345;BME280;54230;52.402;6.276;2023-03-17T01:15:00;100850.0;;;10.5;56.5
67345;BME280;54230;52.402;6.276;2023-03-17T01:20:00;100850.0;;;10.4;55.5
67345;BME280;54230;52.402;6.276;2023-03-17T01:25:00;100840.0;;;10.5;56.5
67345;BME280;54230;52.402;6.276;2023-03-17T01:30:00;100830.0;;;10.4;55.7
67345;BME280;54230;52.402;6.276;2023-03-17T01:35:00;100820.0;;;10.3;55.9
67345;BME280;54230;52.402;6.276;2023-03-17T01:40:00;100800.0;;;10.2;56.5
67345;BME280;54230;52.402;6.276;2023-03-17T01:45:03;100790.0;;;10.1;56.6
67345;BME280;54230;52.402;6.276;2023-03-17T01:50:04;100810.0;;;10.1;56.9
67345;BME280;54230;52.402;6.276;2023-03-17T01:55:02;100810.0;;;10.2;56.9
67345;BME280;54230;52.402;6.276;2023-03-17T02:00:03;100800.0;;;10.2;56.5
67345;BME280;54230;52.402;6.276;2023-03-17T02:05:00;100790.0;;;10.2;56.5
67345;BME280;54230;52.402;6.276;2023-03-17T02:10:01;100800.0;;;10.3;56.0
67345;BME280;54230;52.402;6.276;2023-03-17T02:15:00;100790.0;;;10.3;56.3
67345;BME280;54230;52.402;6.276;2023-03-17T02:20:12;100780.0;;;10.3;56.3
67345;BME280;54230;52.402;6.276;2023-03-17T02:25:00;100780.0;;;10.2;56.3
67345;BME280;54230;52.402;6.276;2023-03-17T02:30:00;100770.0;;;10.2;56.0
67345;BME280;54230;52.402;6.276;2023-03-17T02:35:00;100770.0;;;10.1;56.4
67345;BME280;54230;52.402;6.276;2023-03-17T02:40:00;100770.0;;;10.1;56.3
67345;BME280;54230;52.402;6.276;2023-03-17T02:45:00;100760.0;;;10.1;56.5
67345;BME280;54230;52.402;6.276;2023-03-17T02:50:00;100770.0;;;10.0;56.2
67345;BME280;54230;52.402;6.276;2023-03-17T02:55:00;100770.0;;;10.0;56.7
67345;BME280;54230;52.402;6.276;2023-03-17T03:00:00;100770.0;;;10.0;56.6
67345;BME280;54230;52.402;6.276;2023-03-17T03:05:00;100760.0;;;9.9;56.1
67345;BME280;54230;52.402;6.276;2023-03-17T03:10:00;100750.0;;;9.7;56.4
67345;BME280;54230;52.402;6.276;2023-03-17T03:15:00;100760.0;;;9.7;56.4
67345;BME280;54230;52.402;6.276;2023-03-17T03:20:00;100760.0;;;9.7;56.7
67345;BME280;54230;52.402;6.276;2023-03-17T03:25:00;100760.0;;;9.7;56.3
67345;BME280;54230;52.402;6.276;2023-03-17T03:30:00;100760.0;;;9.6;56.4
67345;BME280;54230;52.402;6.276;2023-03-17T03:35:00;100770.0;;;9.5;56.8
67345;BME280;54230;52.402;6.276;2023-03-17T03:40:00;100770.0;;;9.6;57.2
67345;BME280;54230;52.402;6.276;2023-03-17T03:45:00;100770.0;;;9.5;57.4
67345;BME280;54230;52.402;6.276;2023-03-17T03:50:00;100750.0;;;9.5;57.3
67345;BME280;54230;52.402;6.276;2023-03-17T03:55:00;100740.0;;;9.5;57.1
67345;BME280;54230;52.402;6.276;2023-03-17T04:00:00;100750.0;;;9.5;57.4
67345;BME280;54230;52.402;6.276;2023-03-17T04:05:00;100760.0;;;9.5;57.4
67345;BME280;54230;52.402;6.276;2023-03-17T04:10:00;100770.0;;;9.5;57.4
67345;BME280;54230;52.402;6.276;2023-03-17T04:15:00;100770.0;;;9.5;57.4
67345;BME280;54230;52.402;6.276;2023-03-17T04:20:00;100760.0;;;9.6;57.1
67345;BME280;54230;52.402;6.276;2023-03-17T04:25:00;100760.0;;;9.6;57.0
67345;BME280;54230;52.402;6.276;2023-03-17T04:30:00;100760.0;;;9.6;57.1
67345;BME280;54230;52.402;6.276;2023-03-17T04:35:00;100750.0;;;9.7;57.2
67345;BME280;54230;52.402;6.276;2023-03-17T04:40:00;100760.0;;;9.8;57.1
67345;BME280;54230;52.402;6.276;2023-03-17T04:45:00;100770.0;;;9.8;56.9
67345;BME280;54230;52.402;6.276;2023-03-17T04:50:00;100770.0;;;9.7;57.1
67345;BME280;54230;52.402;6.276;2023-03-17T04:55:00;100770.0;;;9.8;57.1
67345;BME280;54230;52.402;6.276;2023-03-17T05:00:00;100780.0;;;9.8;56.7
67345;BME280;54230;52.402;6.276;2023-03-17T05:05:00;100780.0;;;9.8;56.9
67345;BME280;54230;52.402;6.276;2023-03-17T05:10:00;100770.0;;;9.8;56.9
67345;BME280;54230;52.402;6.276;2023-03-17T05:15:00;100770.0;;;9.7;56.9
67345;BME280;54230;52.402;6.276;2023-03-17T05:20:00;100770.0;;;9.7;57.0
67345;BME280;54230;52.402;6.276;2023-03-17T05:25:00;100770.0;;;9.8;57.2
67345;BME280;54230;52.402;6.276;2023-03-17T05:30:00;100770.0;;;9.8;57.0
67345;BME280;54230;52.402;6.276;2023-03-17T05:35:00;100780.0;;;9.7;57.1
67345;BME280;54230;52.402;6.276;2023-03-17T05:40:00;100790.0;;;9.6;57.8
67345;BME280;54230;52.402;6.276;2023-03-17T05:45:00;100780.0;;;9.6;57.9
67345;BME280;54230;52.402;6.276;2023-03-17T05:50:00;100790.0;;;9.6;57.8
67345;BME280;54230;52.402;6.276;2023-03-17T05:55:00;100780.0;;;9.6;58.2
67345;BME280;54230;52.402;6.276;2023-03-17T06:00:01;100770.0;;;9.5;58.4
67345;BME280;54230;52.402;6.276;2023-03-17T06:05:00;100770.0;;;9.4;58.2
67345;BME280;54230;52.402;6.276;2023-03-17T06:10:00;100770.0;;;9.4;58.4
67345;BME280;54230;52.402;6.276;2023-03-17T06:15:00;100760.0;;;9.5;58.7
67345;BME280;54230;52.402;6.276;2023-03-17T06:20:00;100750.0;;;9.6;58.2
67345;BME280;54230;52.402;6.276;2023-03-17T06:25:00;100750.0;;;9.7;58.0
67345;BME280;54230;52.402;6.276;2023-03-17T06:30:00;100750.0;;;9.7;58.1
67345;BME280;54230;52.402;6.276;2023-03-17T06:35:00;100720.0;;;9.8;57.9
67345;BME280;54230;52.402;6.276;2023-03-17T06:40:00;100740.0;;;10.0;57.4
67345;BME280;54230;52.402;6.276;2023-03-17T06:45:00;100740.0;;;10.0;57.1
67345;BME280;54230;52.402;6.276;2023-03-17T06:50:00;100760.0;;;10.0;57.0
67345;BME280;54230;52.402;6.276;2023-03-17T06:55:00;100760.0;;;10.0;56.9
67345;BME280;54230;52.402;6.276;2023-03-17T07:00:00;100770.0;;;10.1;57.1
67345;BME280;54230;52.402;6.276;2023-03-17T07:05:00;100770.0;;;10.3;57.7
67345;BME280;54230;52.402;6.276;2023-03-17T07:10:00;100770.0;;;10.5;57.9
67345;BME280;54230;52.402;6.276;2023-03-17T07:15:00;100780.0;;;10.6;57.5
67345;BME280;54230;52.402;6.276;2023-03-17T07:20:00;100770.0;;;10.8;57.3
67345;BME280;54230;52.402;6.276;2023-03-17T07:25:00;100760.0;;;10.8;56.9
67345;BME280;54230;52.402;6.276;2023-03-17T07:30:00;100770.0;;;10.9;56.8
67345;BME280;54230;52.402;6.276;2023-03-17T07:35:00;100760.0;;;10.8;55.6
67345;BME280;54230;52.402;6.276;2023-03-17T07:40:00;100760.0;;;10.9;55.5
67345;BME280;54230;52.402;6.276;2023-03-17T07:45:00;100760.0;;;11.1;55.2
67345;BME280;54230;52.402;6.276;2023-03-17T07:50:00;100760.0;;;11.5;54.7
67345;BME280;54230;52.402;6.276;2023-03-17T07:55:00;100760.0;;;11.7;54.4
67345;BME280;54230;52.402;6.276;2023-03-17T08:00:00;100760.0;;;11.9;53.4
67345;BME280;54230;52.402;6.276;2023-03-17T08:05:00;100760.0;;;11.9;52.7
67345;BME280;54230;52.402;6.276;2023-03-17T08:10:00;100760.0;;;12.1;52.7
67345;BME280;54230;52.402;6.276;2023-03-17T08:15:00;100760.0;;;12.4;51.9
67345;BME280;54230;52.402;6.276;2023-03-17T08:20:00;100750.0;;;12.5;51.4
67345;BME280;54230;52.402;6.276;2023-03-17T08:25:00;100750.0;;;12.7;50.9
67345;BME280;54230;52.402;6.276;2023-03-17T08:30:00;100740.0;;;12.7;50.6
67345;BME280;54230;52.402;6.276;2023-03-17T08:35:00;100750.0;;;12.8;50.8
67345;BME280;54230;52.402;6.276;2023-03-17T08:40:00;100740.0;;;13.0;50.6
67345;BME280;54230;52.402;6.276;2023-03-17T08:45:00;100730.0;;;13.1;50.3
67345;BME280;54230;52.402;6.276;2023-03-17T08:50:02;100730.0;;;13.0;50.6
67345;BME280;54230;52.402;6.276;2023-03-17T08:55:00;100730.0;;;12.9;50.4
67345;BME280;54230;52.402;6.276;2023-03-17T09:00:00;100730.0;;;13.0;50.5
67345;BME280;54230;52.402;6.276;2023-03-17T09:05:00;100750.0;;;13.3;50.6
67345;BME280;54230;52.402;6.276;2023-03-17T09:10:00;100750.0;;;13.3;50.0
67345;BME280;54230;52.402;6.276;2023-03-17T09:15:00;100750.0;;;13.4;50.1
67345;BME280;54230;52.402;6.276;2023-03-17T09:20:00;100750.0;;;13.6;49.8
67345;BME280;54230;52.402;6.276;2023-03-17T09:25:00;100750.0;;;13.7;49.5
67345;BME280;54230;52.402;6.276;2023-03-17T09:30:00;100740.0;;;13.9;48.9
67345;BME280;54230;52.402;6.276;2023-03-17T09:35:00;100740.0;;;14.0;49.0
67345;BME280;54230;52.402;6.276;2023-03-17T09:40:00;100730.0;;;14.1;48.7
67345;BME280;54230;52.402;6.276;2023-03-17T09:45:09;100750.0;;;14.2;48.8
67345;BME280;54230;52.402;6.276;2023-03-17T09:50:03;100750.0;;;14.4;48.7
67345;BME280;54230;52.402;6.276;2023-03-17T09:55:02;100750.0;;;14.6;48.4
67345;BME280;54230;52.402;6.276;2023-03-17T10:00:02;100740.0;;;14.8;48.3
67345;BME280;54230;52.402;6.276;2023-03-17T10:05:09;100740.0;;;14.9;48.0
67345;BME280;54230;52.402;6.276;2023-03-17T10:10:02;100750.0;;;15.1;47.6
67345;BME280;54230;52.402;6.276;2023-03-17T10:15:01;100750.0;;;15.1;47.5
67345;BME280;54230;52.402;6.276;2023-03-17T10:20:03;100750.0;;;15.2;47.2
67345;BME280;54230;52.402;6.276;2023-03-17T10:25:03;100750.0;;;15.1;47.4
67345;BME280;54230;52.402;6.276;2023-03-17T10:30:00;100750.0;;;15.2;47.5
67345;BME280;54230;52.402;6.276;2023-03-17T10:35:00;100750.0;;;15.4;47.5
67345;BME280;54230;52.402;6.276;2023-03-17T10:40:03;100750.0;;;15.5;47.0
67345;BME280;54230;52.402;6.276;2023-03-17T10:45:05;100750.0;;;15.7;47.0
67345;BME280;54230;52.402;6.276;2023-03-17T10:50:02;100750.0;;;15.8;46.5
67345;BME280;54230;52.402;6.276;2023-03-17T10:55:01;100740.0;;;15.6;46.4
67345;BME280;54230;52.402;6.276;2023-03-17T11:00:00;100730.0;;;15.7;46.1
67345;BME280;54230;52.402;6.276;2023-03-17T11:05:03;100730.0;;;15.8;46.4
67345;BME280;54230;52.402;6.276;2023-03-17T11:10:02;100740.0;;;15.8;46.4
67345;BME280;54230;52.402;6.276;2023-03-17T11:15:02;100750.0;;;15.8;46.3
67345;BME280;54230;52.402;6.276;2023-03-17T11:20:06;100760.0;;;15.8;46.2
67345;BME280;54230;52.402;6.276;2023-03-17T11:25:04;100770.0;;;15.8;46.6
67345;BME280;54230;52.402;6.276;2023-03-17T11:30:14;100770.0;;;16.1;46.4
67345;BME280;54230;52.402;6.276;2023-03-17T11:35:09;100780.0;;;16.8;46.3
67345;BME280;54230;52.402;6.276;2023-03-17T11:40:06;100780.0;;;17.3;45.9
67345;BME280;54230;52.402;6.276;2023-03-17T11:45:13;100780.0;;;17.4;44.9
67345;BME280;54230;52.402;6.276;2023-03-17T11:50:07;100770.0;;;17.5;44.7
67345;BME280;54230;52.402;6.276;2023-03-17T11:55:07;100770.0;;;18.0;44.5
67345;BME280;54230;52.402;6.276;2023-03-17T12:00:02;100770.0;;;18.3;43.4
67345;BME280;54230;52.402;6.276;2023-03-17T12:05:03;100770.0;;;18.5;42.9
67345;BME280;54230;52.402;6.276;2023-03-17T12:10:05;100760.0;;;18.6;42.9
67345;BME280;54230;52.402;6.276;2023-03-17T12:15:00;100760.0;;;19.0;42.1
67345;BME280;54230;52.402;6.276;2023-03-17T12:20:05;100750.0;;;19.3;41.4
67345;BME280;54230;52.402;6.276;2023-03-17T12:25:03;100760.0;;;19.6;41.5
67345;BME280;54230;52.402;6.276;2023-03-17T12:30:05;100770.0;;;19.9;40.6
67345;BME280;54230;52.402;6.276;2023-03-17T12:35:04;100770.0;;;19.9;39.8
67345;BME280;54230;52.402;6.276;2023-03-17T12:40:03;100760.0;;;19.9;40.0
67345;BME280;54230;52.402;6.276;2023-03-17T12:50:11;100750.0;;;20.2;39.7
67345;BME280;54230;52.402;6.276;2023-03-17T12:55:02;100740.0;;;20.2;39.1
67345;BME280;54230;52.402;6.276;2023-03-17T13:00:04;100730.0;;;20.2;39.4
67345;BME280;54230;52.402;6.276;2023-03-17T13:05:05;100740.0;;;20.3;39.6
67345;BME280;54230;52.402;6.276;2023-03-17T13:10:17;100730.0;;;20.2;39.4
67345;BME280;54230;52.402;6.276;2023-03-17T13:15:00;100710.0;;;20.2;39.4
67345;BME280;54230;52.402;6.276;2023-03-17T13:20:11;100700.0;;;20.7;39.7
67345;BME280;54230;52.402;6.276;2023-03-17T13:25:12;100710.0;;;20.7;38.7
67345;BME280;54230;52.402;6.276;2023-03-17T13:35:18;100720.0;;;20.7;38.5
67345;BME280;54230;52.402;6.276;2023-03-17T13:40:06;100720.0;;;20.8;39.0
67345;BME280;54230;52.402;6.276;2023-03-17T13:45:09;100710.0;;;20.9;39.3
67345;BME280;54230;52.402;6.276;2023-03-17T13:50:02;100710.0;;;21.3;38.7
67345;BME280;54230;52.402;6.276;2023-03-17T13:55:03;100710.0;;;21.3;38.5
67345;BME280;54230;52.402;6.276;2023-03-17T14:00:06;100710.0;;;21.2;38.6
67345;BME280;54230;52.402;6.276;2023-03-17T14:05:02;100710.0;;;21.2;38.6
67345;BME280;54230;52.402;6.276;2023-03-17T14:10:01;100700.0;;;21.3;39.2
67345;BME280;54230;52.402;6.276;2023-03-17T14:15:03;100700.0;;;21.2;38.6
67345;BME280;54230;52.402;6.276;2023-03-17T14:20:03;100690.0;;;21.4;38.7
67345;BME280;54230;52.402;6.276;2023-03-17T14:25:00;100700.0;;;21.6;38.4
67345;BME280;54230;52.402;6.276;2023-03-17T14:30:04;100680.0;;;21.8;37.8
67345;BME280;54230;52.402;6.276;2023-03-17T14:35:00;100670.0;;;22.0;37.8
67345;BME280;54230;52.402;6.276;2023-03-17T14:40:00;100670.0;;;22.0;37.7
67345;BME280;54230;52.402;6.276;2023-03-17T14:45:02;100670.0;;;22.1;37.0
67345;BME280;54230;52.402;6.276;2023-03-17T14:50:00;100670.0;;;21.9;36.9
67345;BME280;54230;52.402;6.276;2023-03-17T14:55:00;100670.0;;;21.7;37.7
67345;BME280;54230;52.402;6.276;2023-03-17T15:00:02;100670.0;;;21.6;38.1
67345;BME280;54230;52.402;6.276;2023-03-17T15:05:03;100660.0;;;21.5;38.4
67345;BME280;54230;52.402;6.276;2023-03-17T15:10:00;100650.0;;;21.5;38.1
67345;BME280;54230;52.402;6.276;2023-03-17T15:15:02;100650.0;;;21.4;38.0
67345;BME280;54230;52.402;6.276;2023-03-17T15:20:03;100640.0;;;21.1;38.4
67345;BME280;54230;52.402;6.276;2023-03-17T15:25:02;100650.0;;;21.0;38.7
67345;BME280;54230;52.402;6.276;2023-03-17T15:30:00;100650.0;;;20.8;39.2
67345;BME280;54230;52.402;6.276;2023-03-17T15:35:00;100650.0;;;20.5;40.0
67345;BME280;54230;52.402;6.276;2023-03-17T15:40:01;100640.0;;;20.4;40.6
67345;BME280;54230;52.402;6.276;2023-03-17T15:45:00;100640.0;;;20.2;41.0
67345;BME280;54230;52.402;6.276;2023-03-17T15:50:05;100630.0;;;20.1;40.8
67345;BME280;54230;52.402;6.276;2023-03-17T15:55:00;100630.0;;;19.8;41.2
67345;BME280;54230;52.402;6.276;2023-03-17T16:00:00;100620.0;;;19.8;41.4
67345;BME280;54230;52.402;6.276;2023-03-17T16:05:03;100620.0;;;19.8;41.6
67345;BME280;54230;52.402;6.276;2023-03-17T16:10:00;100630.0;;;19.8;41.9
67345;BME280;54230;52.402;6.276;2023-03-17T16:15:00;100630.0;;;19.7;42.5
67345;BME280;54230;52.402;6.276;2023-03-17T16:20:00;100640.0;;;19.6;43.1
67345;BME280;54230;52.402;6.276;2023-03-17T16:25:00;100630.0;;;19.4;44.0
67345;BME280;54230;52.402;6.276;2023-03-17T16:30:00;100630.0;;;19.3;44.4
67345;BME280;54230;52.402;6.276;2023-03-17T16:35:00;100630.0;;;19.2;44.3
67345;BME280;54230;52.402;6.276;2023-03-17T16:40:00;100630.0;;;19.0;45.6
67345;BME280;54230;52.402;6.276;2023-03-17T16:45:00;100640.0;;;19.0;45.7
67345;BME280;54230;52.402;6.276;2023-03-17T16:50:00;100650.0;;;19.0;46.0
67345;BME280;54230;52.402;6.276;2023-03-17T16:55:00;100650.0;;;19.0;46.1
67345;BME280;54230;52.402;6.276;2023-03-17T17:00:00;100650.0;;;18.9;46.4
67345;BME280;54230;52.402;6.276;2023-03-17T17:05:00;100650.0;;;18.9;46.7
67345;BME280;54230;52.402;6.276;2023-03-17T17:10:00;100660.0;;;18.8;46.8
67345;BME280;54230;52.402;6.276;2023-03-17T17:15:00;100670.0;;;18.8;47.1
67345;BME280;54230;52.402;6.276;2023-03-17T17:20:00;100680.0;;;18.8;47.1
67345;BME280;54230;52.402;6.276;2023-03-17T17:25:00;100680.0;;;18.7;47.3
67345;BME280;54230;52.402;6.276;2023-03-17T17:30:00;100680.0;;;18.7;47.3
67345;BME280;54230;52.402;6.276;2023-03-17T17:35:00;100680.0;;;18.6;47.4
67345;BME280;54230;52.402;6.276;2023-03-17T17:40:00;100670.0;;;18.6;47.5
67345;BME280;54230;52.402;6.276;2023-03-17T17:45:00;100680.0;;;18.7;47.3
67345;BME280;54230;52.402;6.276;2023-03-17T17:50:00;100680.0;;;18.6;47.6
67345;BME280;54230;52.402;6.276;2023-03-17T17:55:00;100670.0;;;18.4;47.8
67345;BME280;54230;52.402;6.276;2023-03-17T18:00:00;100670.0;;;18.2;48.7
67345;BME280;54230;52.402;6.276;2023-03-17T18:05:00;100680.0;;;17.9;50.4
67345;BME280;54230;52.402;6.276;2023-03-17T18:10:00;100680.0;;;17.6;51.5
67345;BME280;54230;52.402;6.276;2023-03-17T18:15:00;100680.0;;;17.7;51.4
67345;BME280;54230;52.402;6.276;2023-03-17T18:20:00;100680.0;;;17.7;50.9
67345;BME280;54230;52.402;6.276;2023-03-17T18:25:00;100680.0;;;17.7;50.9
67345;BME280;54230;52.402;6.276;2023-03-17T18:30:00;100670.0;;;17.6;51.2
67345;BME280;54230;52.402;6.276;2023-03-17T18:35:02;100670.0;;;17.5;51.2
67345;BME280;54230;52.402;6.276;2023-03-17T18:40:00;100670.0;;;17.3;52.0
67345;BME280;54230;52.402;6.276;2023-03-17T18:45:00;100660.0;;;17.1;52.8
67345;BME280;54230;52.402;6.276;2023-03-17T18:50:00;100670.0;;;17.0;53.5
67345;BME280;54230;52.402;6.276;2023-03-17T18:55:00;100670.0;;;17.0;53.6
67345;BME280;54230;52.402;6.276;2023-03-17T19:00:00;100670.0;;;17.1;53.4
67345;BME280;54230;52.402;6.276;2023-03-17T19:05:00;100660.0;;;17.2;53.0
67345;BME280;54230;52.402;6.276;2023-03-17T19:10:00;100670.0;;;17.2;52.6
67345;BME280;54230;52.402;6.276;2023-03-17T19:15:00;100660.0;;;17.0;51.9
67345;BME280;54230;52.402;6.276;2023-03-17T19:20:00;100660.0;;;16.9;51.6
67345;BME280;54230;52.402;6.276;2023-03-17T19:25:00;100640.0;;;16.7;51.7
67345;BME280;54230;52.402;6.276;2023-03-17T19:30:00;100650.0;;;16.6;51.6
67345;BME280;54230;52.402;6.276;2023-03-17T19:35:00;100650.0;;;16.6;51.6
67345;BME280;54230;52.402;6.276;2023-03-17T19:40:00;100650.0;;;16.5;50.9
67345;BME280;54230;52.402;6.276;2023-03-17T19:45:00;100630.0;;;16.5;50.5
67345;BME280;54230;52.402;6.276;2023-03-17T19:50:00;100630.0;;;16.4;50.9
67345;BME280;54230;52.402;6.276;2023-03-17T19:55:00;100640.0;;;16.3;51.0
67345;BME280;54230;52.402;6.276;2023-03-17T20:00:00;100640.0;;;16.2;51.5
67345;BME280;54230;52.402;6.276;2023-03-17T20:05:00;100640.0;;;16.2;51.4
67345;BME280;54230;52.402;6.276;2023-03-17T20:10:00;100650.0;;;16.3;51.3
67345;BME280;54230;52.402;6.276;2023-03-17T20:15:00;100650.0;;;16.1;51.3
67345;BME280;54230;52.402;6.276;2023-03-17T20:20:00;100650.0;;;16.2;51.5
67345;BME280;54230;52.402;6.276;2023-03-17T20:25:00;100650.0;;;16.2;51.8
67345;BME280;54230;52.402;6.276;2023-03-17T20:30:00;100650.0;;;16.1;51.6
67345;BME280;54230;52.402;6.276;2023-03-17T20:35:00;100650.0;;;16.2;51.7
67345;BME280;54230;52.402;6.276;2023-03-17T20:40:00;100650.0;;;16.2;52.1
67345;BME280;54230;52.402;6.276;2023-03-17T20:45:00;100650.0;;;16.1;52.1
67345;BME280;54230;52.402;6.276;2023-03-17T20:50:00;100650.0;;;16.0;52.4
67345;BME280;54230;52.402;6.276;2023-03-17T20:55:00;100650.0;;;16.0;52.4
67345;BME280;54230;52.402;6.276;2023-03-17T21:00:00;100650.0;;;16.0;52.6
67345;BME280;54230;52.402;6.276;2023-03-17T21:05:00;100650.0;;;16.0;52.5
67345;BME280;54230;52.402;6.276;2023-03-17T21:10:00;100650.0;;;15.9;52.5
67345;BME280;54230;52.402;6.276;2023-03-17T21:15:00;100660.0;;;15.8;53.1
67345;BME280;54230;52.402;6.276;2023-03-17T21:20:00;100650.0;;;15.8;53.2
67345;BME280;54230;52.402;6.276;2023-03-17T21:25:00;100660.0;;;15.8;53.2
67345;BME280;54230;52.402;6.276;2023-03-17T21:30:00;100660.0;;;15.8;53.6
67345;BME280;54230;52.402;6.276;2023-03-17T21:35:00;100670.0;;;15.8;53.6
67345;BME280;54230;52.402;6.276;2023-03-17T21:40:00;100670.0;;;15.7;53.8
67345;BME280;54230;52.402;6.276;2023-03-17T21:45:00;100670.0;;;15.7;53.7
67345;BME280;54230;52.402;6.276;2023-03-17T21:50:00;100690.0;;;15.6;53.7
67345;BME280;54230;52.402;6.276;2023-03-17T21:55:00;100700.0;;;15.6;53.9
67345;BME280;54230;52.402;6.276;2023-03-17T22:00:00;100700.0;;;15.6;53.8
67345;BME280;54230;52.402;6.276;2023-03-17T22:05:00;100700.0;;;15.6;53.7
67345;BME280;54230;52.402;6.276;2023-03-17T22:10:00;100700.0;;;15.7;54.0
67345;BME280;54230;52.402;6.276;2023-03-17T22:15:00;100690.0;;;15.6;53.8
67345;BME280;54230;52.402;6.276;2023-03-17T22:20:00;100690.0;;;15.6;54.0
67345;BME280;54230;52.402;6.276;2023-03-17T22:25:00;100700.0;;;15.6;54.5
67345;BME280;54230;52.402;6.276;2023-03-17T22:30:00;100690.0;;;15.6;54.4
67345;BME280;54230;52.402;6.276;2023-03-17T22:35:00;100690.0;;;15.5;54.4
67345;BME280;54230;52.402;6.276;2023-03-17T22:40:00;100700.0;;;15.4;54.6
67345;BME280;54230;52.402;6.276;2023-03-17T22:45:00;100710.0;;;15.4;54.7
67345;BME280;54230;52.402;6.276;2023-03-17T22:50:00;100710.0;;;15.5;54.6
67345;BME280;54230;52.402;6.276;2023-03-17T22:55:00;100700.0;;;15.5;54.9
67345;BME280;54230;52.402;6.276;2023-03-17T23:00:00;100710.0;;;15.4;54.7
67345;BME280;54230;52.402;6.276;2023-03-17T23:05:00;100720.0;;;15.5;54.5
67345;BME280;54230;52.402;6.276;2023-03-17T23:10:00;100720.0;;;15.4;54.5
67345;BME280;54230;52.402;6.276;2023-03-17T23:15:00;100720.0;;;15.4;55.0
67345;BME280;54230;52.402;6.276;2023-03-17T23:20:00;100730.0;;;15.3;55.3
67345;BME280;54230;52.402;6.276;2023-03-17T23:25:00;100740.0;;;15.2;55.5
67345;BME280;54230;52.402;6.276;2023-03-17T23:30:00;100740.0;;;15.2;55.6
67345;BME280;54230;52.402;6.276;2023-03-17T23:35:00;100740.0;;;15.2;55.8
67345;BME280;54230;52.402;6.276;2023-03-17T23:40:00;100740.0;;;15.2;55.7
67345;BME280;54230;52.402;6.276;2023-03-17T23:45:00;100740.0;;;15.2;55.8
67345;BME280;54230;52.402;6.276;2023-03-17T23:50:00;100730.0;;;15.2;55.4
67345;BME280;54230;52.402;6.276;2023-03-17T23:55:00;100740.0;;;15.1;55.8
